sensor_id;sensor_type;location;lat;lon;timestamp;P1;durP1;ratioP1;P2;durP2;ratioP2
2474;SDS011;1248;48.694;10.160;2024-02-21T00:00:03;15.00;;;7.17;;
2474;SDS011;1248;48.694;10.160;2024-02-21T00:02:31;14.30;;;7.10;;
2474;SDS011;1248;48.694;10.160;2024-02-21T00:04:58;11.10;;;5.93;;
2474;SDS011;1248;48.694;10.160;2024-02-21T00:07:25;11.17;;;6.90;;
2474;SDS011;1248;48.694;10.160;2024-02-21T00:09:52;14.53;;;6.63;;
2474;SDS011;1248;48.694;10.160;2024-02-21T00:12:19;8.83;;;6.43;;
2474;SDS011;1248;48.694;10.160;2024-02-21T00:14:48;9.10;;;5.10;;
2474;SDS011;1248;48.694;10.160;2024-02-21T00:17:15;10.00;;;6.20;;
2474;SDS011;1248;48.694;10.160;2024-02-21T00:19:42;13.80;;;6.80;;
2474;SDS011;1248;48.694;10.160;2024-02-21T00:22:09;10.67;;;7.00;;
2474;SDS011;1248;48.694;10.160;2024-02-21T00:24:36;7.57;;;5.70;;
2474;SDS011;1248;48.694;10.160;2024-02-21T00:27:03;13.60;;;6.27;;
2474;SDS011;1248;48.694;10.160;2024-02-21T00:29:31;11.03;;;6.20;;
2474;SDS011;1248;48.694;10.160;2024-02-21T00:31:59;9.43;;;6.13;;
2474;SDS011;1248;48.694;10.160;2024-02-21T00:34:26;13.67;;;7.87;;
2474;SDS011;1248;48.694;10.160;2024-02-21T00:36:53;20.87;;;6.53;;
2474;SDS011;1248;48.694;10.160;2024-02-21T00:39:20;10.07;;;6.27;;
2474;SDS011;1248;48.694;10.160;2024-02-21T00:41:47;13.77;;;6.13;;
2474;SDS011;1248;48.694;10.160;2024-02-21T00:44:14;13.10;;;6.60;;
2474;SDS011;1248;48.694;10.160;2024-02-21T00:46:41;8.90;;;6.80;;
2474;SDS011;1248;48.694;10.160;2024-02-21T00:49:10;8.93;;;6.00;;
2474;SDS011;1248;48.694;10.160;2024-02-21T00:51:37;10.80;;;6.70;;
2474;SDS011;1248;48.694;10.160;2024-02-21T00:54:04;12.37;;;5.67;;
2474;SDS011;1248;48.694;10.160;2024-02-21T00:56:31;13.03;;;6.80;;
2474;SDS011;1248;48.694;10.160;2024-02-21T00:58:58;8.80;;;6.33;;
2474;SDS011;1248;48.694;10.160;2024-02-21T01:01:25;14.50;;;7.00;;
2474;SDS011;1248;48.694;10.160;2024-02-21T01:03:53;9.17;;;5.70;;
2474;SDS011;1248;48.694;10.160;2024-02-21T01:06:21;9.50;;;6.10;;
2474;SDS011;1248;48.694;10.160;2024-02-21T01:08:49;13.10;;;6.30;;
2474;SDS011;1248;48.694;10.160;2024-02-21T01:11:16;7.97;;;5.60;;
2474;SDS011;1248;48.694;10.160;2024-02-21T01:13:43;11.77;;;6.53;;
2474;SDS011;1248;48.694;10.160;2024-02-21T01:16:10;18.67;;;6.43;;
2474;SDS011;1248;48.694;10.160;2024-02-21T01:18:37;11.47;;;5.20;;
2474;SDS011;1248;48.694;10.160;2024-02-21T01:21:06;16.30;;;5.93;;
2474;SDS011;1248;48.694;10.160;2024-02-21T01:23:35;12.70;;;6.27;;
2474;SDS011;1248;48.694;10.160;2024-02-21T01:26:02;20.40;;;7.77;;
2474;SDS011;1248;48.694;10.160;2024-02-21T01:28:29;6.93;;;5.00;;
2474;SDS011;1248;48.694;10.160;2024-02-21T01:30:57;10.23;;;5.50;;
2474;SDS011;1248;48.694;10.160;2024-02-21T01:33:24;6.43;;;5.30;;
2474;SDS011;1248;48.694;10.160;2024-02-21T01:35:52;10.60;;;5.00;;
2474;SDS011;1248;48.694;10.160;2024-02-21T01:38:19;11.53;;;6.67;;
2474;SDS011;1248;48.694;10.160;2024-02-21T01:40:48;11.17;;;5.40;;
2474;SDS011;1248;48.694;10.160;2024-02-21T01:43:15;12.67;;;5.50;;
2474;SDS011;1248;48.694;10.160;2024-02-21T01:45:43;9.67;;;5.20;;
2474;SDS011;1248;48.694;10.160;2024-02-21T01:48:12;17.30;;;6.27;;
2474;SDS011;1248;48.694;10.160;2024-02-21T01:50:39;9.00;;;5.50;;
2474;SDS011;1248;48.694;10.160;2024-02-21T01:53:06;14.37;;;6.13;;
2474;SDS011;1248;48.694;10.160;2024-02-21T01:55:33;9.70;;;6.27;;
2474;SDS011;1248;48.694;10.160;2024-02-21T01:58:02;11.80;;;5.80;;
2474;SDS011;1248;48.694;10.160;2024-02-21T02:00:29;14.13;;;4.60;;
2474;SDS011;1248;48.694;10.160;2024-02-21T02:02:57;11.60;;;5.73;;
2474;SDS011;1248;48.694;10.160;2024-02-21T02:05:24;7.43;;;4.97;;
2474;SDS011;1248;48.694;10.160;2024-02-21T02:07:52;7.60;;;5.40;;
2474;SDS011;1248;48.694;10.160;2024-02-21T02:10:19;12.63;;;6.40;;
2474;SDS011;1248;48.694;10.160;2024-02-21T02:12:46;13.33;;;5.83;;
2474;SDS011;1248;48.694;10.160;2024-02-21T02:15:15;7.00;;;4.20;;
2474;SDS011;1248;48.694;10.160;2024-02-21T02:17:42;7.80;;;5.53;;
2474;SDS011;1248;48.694;10.160;2024-02-21T02:20:09;12.90;;;5.00;;
2474;SDS011;1248;48.694;10.160;2024-02-21T02:22:37;11.73;;;5.20;;
2474;SDS011;1248;48.694;10.160;2024-02-21T02:25:06;10.77;;;4.63;;
2474;SDS011;1248;48.694;10.160;2024-02-21T02:27:40;9.50;;;5.67;;
2474;SDS011;1248;48.694;10.160;2024-02-21T02:30:10;7.87;;;4.93;;
2474;SDS011;1248;48.694;10.160;2024-02-21T02:32:38;7.57;;;4.60;;
2474;SDS011;1248;48.694;10.160;2024-02-21T02:35:05;7.60;;;4.67;;
2474;SDS011;1248;48.694;10.160;2024-02-21T02:37:32;10.00;;;5.60;;
2474;SDS011;1248;48.694;10.160;2024-02-21T02:39:59;8.60;;;5.10;;
2474;SDS011;1248;48.694;10.160;2024-02-21T02:42:28;7.47;;;5.70;;
2474;SDS011;1248;48.694;10.160;2024-02-21T02:44:55;10.60;;;6.07;;
2474;SDS011;1248;48.694;10.160;2024-02-21T02:47:22;11.00;;;5.47;;
2474;SDS011;1248;48.694;10.160;2024-02-21T02:49:49;10.30;;;5.20;;
2474;SDS011;1248;48.694;10.160;2024-02-21T02:52:17;9.73;;;4.37;;
2474;SDS011;1248;48.694;10.160;2024-02-21T02:54:44;10.07;;;5.17;;
2474;SDS011;1248;48.694;10.160;2024-02-21T02:57:12;5.57;;;4.30;;
2474;SDS011;1248;48.694;10.160;2024-02-21T02:59:40;6.10;;;4.90;;
2474;SDS011;1248;48.694;10.160;2024-02-21T03:02:07;18.27;;;4.80;;
2474;SDS011;1248;48.694;10.160;2024-02-21T03:04:34;9.63;;;5.63;;
2474;SDS011;1248;48.694;10.160;2024-02-21T03:07:01;9.30;;;4.73;;
2474;SDS011;1248;48.694;10.160;2024-02-21T03:09:28;8.30;;;4.90;;
2474;SDS011;1248;48.694;10.160;2024-02-21T03:11:55;7.17;;;4.77;;
2474;SDS011;1248;48.694;10.160;2024-02-21T03:14:28;8.03;;;4.20;;
2474;SDS011;1248;48.694;10.160;2024-02-21T03:16:56;12.90;;;5.30;;
2474;SDS011;1248;48.694;10.160;2024-02-21T03:19:24;10.97;;;4.67;;
2474;SDS011;1248;48.694;10.160;2024-02-21T03:21:51;9.33;;;4.60;;
2474;SDS011;1248;48.694;10.160;2024-02-21T03:24:18;13.73;;;5.60;;
2474;SDS011;1248;48.694;10.160;2024-02-21T03:26:46;12.10;;;6.40;;
2474;SDS011;1248;48.694;10.160;2024-02-21T03:29:14;6.27;;;4.60;;
2474;SDS011;1248;48.694;10.160;2024-02-21T03:31:42;7.83;;;4.63;;
2474;SDS011;1248;48.694;10.160;2024-02-21T03:34:11;18.63;;;5.73;;
2474;SDS011;1248;48.694;10.160;2024-02-21T03:36:38;14.00;;;5.43;;
2474;SDS011;1248;48.694;10.160;2024-02-21T03:39:05;18.03;;;6.57;;
2474;SDS011;1248;48.694;10.160;2024-02-21T03:41:33;10.93;;;5.60;;
2474;SDS011;1248;48.694;10.160;2024-02-21T03:44:00;9.17;;;5.50;;
2474;SDS011;1248;48.694;10.160;2024-02-21T03:46:27;8.00;;;5.07;;
2474;SDS011;1248;48.694;10.160;2024-02-21T03:48:54;9.30;;;6.00;;
2474;SDS011;1248;48.694;10.160;2024-02-21T03:51:23;10.60;;;5.53;;
2474;SDS011;1248;48.694;10.160;2024-02-21T03:53:50;12.33;;;5.57;;
2474;SDS011;1248;48.694;10.160;2024-02-21T03:56:17;7.23;;;4.43;;
2474;SDS011;1248;48.694;10.160;2024-02-21T03:58:44;8.83;;;5.57;;
2474;SDS011;1248;48.694;10.160;2024-02-21T04:01:11;8.80;;;5.17;;
2474;SDS011;1248;48.694;10.160;2024-02-21T04:03:38;11.33;;;6.07;;
2474;SDS011;1248;48.694;10.160;2024-02-21T04:06:05;19.43;;;8.90;;
2474;SDS011;1248;48.694;10.160;2024-02-21T04:08:34;12.27;;;7.20;;
2474;SDS011;1248;48.694;10.160;2024-02-21T04:11:01;15.40;;;8.10;;
2474;SDS011;1248;48.694;10.160;2024-02-21T04:13:28;19.63;;;7.20;;
2474;SDS011;1248;48.694;10.160;2024-02-21T04:15:55;14.50;;;6.20;;
2474;SDS011;1248;48.694;10.160;2024-02-21T04:18:22;14.97;;;6.33;;
2474;SDS011;1248;48.694;10.160;2024-02-21T04:20:50;11.63;;;5.00;;
2474;SDS011;1248;48.694;10.160;2024-02-21T04:23:18;10.07;;;6.60;;
2474;SDS011;1248;48.694;10.160;2024-02-21T04:25:46;9.03;;;5.03;;
2474;SDS011;1248;48.694;10.160;2024-02-21T04:28:13;12.63;;;5.90;;
2474;SDS011;1248;48.694;10.160;2024-02-21T04:30:40;13.23;;;5.03;;
2474;SDS011;1248;48.694;10.160;2024-02-21T04:33:07;10.70;;;5.07;;
2474;SDS011;1248;48.694;10.160;2024-02-21T04:35:35;6.37;;;4.47;;
2474;SDS011;1248;48.694;10.160;2024-02-21T04:38:02;15.73;;;6.80;;
2474;SDS011;1248;48.694;10.160;2024-02-21T04:40:30;17.13;;;4.60;;
2474;SDS011;1248;48.694;10.160;2024-02-21T04:42:58;14.80;;;5.97;;
2474;SDS011;1248;48.694;10.160;2024-02-21T04:45:25;6.53;;;4.93;;
2474;SDS011;1248;48.694;10.160;2024-02-21T04:47:52;8.77;;;5.23;;
2474;SDS011;1248;48.694;10.160;2024-02-21T04:50:19;12.73;;;3.93;;
2474;SDS011;1248;48.694;10.160;2024-02-21T04:52:46;8.33;;;4.80;;
2474;SDS011;1248;48.694;10.160;2024-02-21T04:55:13;7.70;;;4.23;;
2474;SDS011;1248;48.694;10.160;2024-02-21T04:57:40;9.57;;;4.17;;
2474;SDS011;1248;48.694;10.160;2024-02-21T05:00:09;3.90;;;3.50;;
2474;SDS011;1248;48.694;10.160;2024-02-21T05:02:37;11.73;;;5.40;;
2474;SDS011;1248;48.694;10.160;2024-02-21T05:05:04;9.13;;;4.93;;
2474;SDS011;1248;48.694;10.160;2024-02-21T05:07:31;11.63;;;5.50;;
2474;SDS011;1248;48.694;10.160;2024-02-21T05:09:58;10.10;;;4.50;;
2474;SDS011;1248;48.694;10.160;2024-02-21T05:12:25;5.90;;;4.37;;
2474;SDS011;1248;48.694;10.160;2024-02-21T05:14:52;10.60;;;4.90;;
2474;SDS011;1248;48.694;10.160;2024-02-21T05:17:21;19.10;;;5.40;;
2474;SDS011;1248;48.694;10.160;2024-02-21T05:19:48;9.53;;;4.90;;
2474;SDS011;1248;48.694;10.160;2024-02-21T05:22:15;13.77;;;5.90;;
2474;SDS011;1248;48.694;10.160;2024-02-21T05:24:42;11.80;;;5.33;;
2474;SDS011;1248;48.694;10.160;2024-02-21T05:27:09;8.50;;;5.07;;
2474;SDS011;1248;48.694;10.160;2024-02-21T05:29:36;9.23;;;5.53;;
2474;SDS011;1248;48.694;10.160;2024-02-21T05:32:03;8.83;;;5.37;;
2474;SDS011;1248;48.694;10.160;2024-02-21T05:34:31;9.47;;;5.07;;
2474;SDS011;1248;48.694;10.160;2024-02-21T05:36:59;12.70;;;6.07;;
2474;SDS011;1248;48.694;10.160;2024-02-21T05:39:26;13.07;;;7.10;;
2474;SDS011;1248;48.694;10.160;2024-02-21T05:41:54;8.37;;;6.17;;
2474;SDS011;1248;48.694;10.160;2024-02-21T05:44:22;10.17;;;5.83;;
2474;SDS011;1248;48.694;10.160;2024-02-21T05:46:49;11.53;;;7.20;;
2474;SDS011;1248;48.694;10.160;2024-02-21T05:49:16;8.53;;;6.20;;
2474;SDS011;1248;48.694;10.160;2024-02-21T05:51:44;15.97;;;7.07;;
2474;SDS011;1248;48.694;10.160;2024-02-21T05:54:11;10.60;;;6.10;;
2474;SDS011;1248;48.694;10.160;2024-02-21T05:56:38;13.40;;;6.87;;
2474;SDS011;1248;48.694;10.160;2024-02-21T05:59:05;9.13;;;5.30;;
2474;SDS011;1248;48.694;10.160;2024-02-21T06:01:32;12.93;;;5.60;;
2474;SDS011;1248;48.694;10.160;2024-02-21T06:03:59;13.17;;;5.60;;
2474;SDS011;1248;48.694;10.160;2024-02-21T06:06:26;7.77;;;5.23;;
2474;SDS011;1248;48.694;10.160;2024-02-21T06:08:55;7.93;;;4.77;;
2474;SDS011;1248;48.694;10.160;2024-02-21T06:11:22;6.90;;;4.60;;
2474;SDS011;1248;48.694;10.160;2024-02-21T06:13:49;15.70;;;5.73;;
2474;SDS011;1248;48.694;10.160;2024-02-21T06:16:16;8.33;;;4.47;;
2474;SDS011;1248;48.694;10.160;2024-02-21T06:18:43;5.77;;;5.27;;
2474;SDS011;1248;48.694;10.160;2024-02-21T06:21:10;7.53;;;5.87;;
2474;SDS011;1248;48.694;10.160;2024-02-21T06:23:38;15.63;;;6.23;;
2474;SDS011;1248;48.694;10.160;2024-02-21T06:26:06;7.10;;;5.40;;
2474;SDS011;1248;48.694;10.160;2024-02-21T06:28:33;11.80;;;7.47;;
2474;SDS011;1248;48.694;10.160;2024-02-21T06:31:00;8.40;;;6.07;;
2474;SDS011;1248;48.694;10.160;2024-02-21T06:33:27;16.40;;;7.90;;
2474;SDS011;1248;48.694;10.160;2024-02-21T06:35:54;13.90;;;6.30;;
2474;SDS011;1248;48.694;10.160;2024-02-21T06:38:22;12.50;;;6.27;;
2474;SDS011;1248;48.694;10.160;2024-02-21T06:40:49;14.50;;;6.90;;
2474;SDS011;1248;48.694;10.160;2024-02-21T06:43:19;12.67;;;6.83;;
2474;SDS011;1248;48.694;10.160;2024-02-21T06:45:46;11.27;;;5.77;;
2474;SDS011;1248;48.694;10.160;2024-02-21T06:48:16;10.00;;;5.53;;
2474;SDS011;1248;48.694;10.160;2024-02-21T06:50:44;13.30;;;6.03;;
2474;SDS011;1248;48.694;10.160;2024-02-21T06:53:12;8.77;;;6.60;;
2474;SDS011;1248;48.694;10.160;2024-02-21T06:55:39;10.80;;;6.43;;
2474;SDS011;1248;48.694;10.160;2024-02-21T06:58:06;15.23;;;7.20;;
2474;SDS011;1248;48.694;10.160;2024-02-21T07:00:39;9.47;;;6.63;;
2474;SDS011;1248;48.694;10.160;2024-02-21T07:03:06;12.20;;;7.23;;
2474;SDS011;1248;48.694;10.160;2024-02-21T07:05:33;13.90;;;7.70;;
2474;SDS011;1248;48.694;10.160;2024-02-21T07:08:00;12.97;;;7.53;;
2474;SDS011;1248;48.694;10.160;2024-02-21T07:10:28;10.20;;;6.53;;
2474;SDS011;1248;48.694;10.160;2024-02-21T07:12:55;14.53;;;7.00;;
2474;SDS011;1248;48.694;10.160;2024-02-21T07:15:22;10.57;;;6.63;;
2474;SDS011;1248;48.694;10.160;2024-02-21T07:17:53;14.33;;;6.50;;
2474;SDS011;1248;48.694;10.160;2024-02-21T07:20:20;12.60;;;6.87;;
2474;SDS011;1248;48.694;10.160;2024-02-21T07:22:47;14.03;;;6.23;;
2474;SDS011;1248;48.694;10.160;2024-02-21T07:25:15;19.60;;;7.50;;
2474;SDS011;1248;48.694;10.160;2024-02-21T07:27:42;10.27;;;6.97;;
2474;SDS011;1248;48.694;10.160;2024-02-21T07:30:10;10.67;;;5.80;;
2474;SDS011;1248;48.694;10.160;2024-02-21T07:32:37;15.10;;;6.40;;
2474;SDS011;1248;48.694;10.160;2024-02-21T07:35:06;14.60;;;6.63;;
2474;SDS011;1248;48.694;10.160;2024-02-21T07:37:36;7.57;;;5.77;;
2474;SDS011;1248;48.694;10.160;2024-02-21T07:40:04;16.03;;;6.63;;
2474;SDS011;1248;48.694;10.160;2024-02-21T07:42:32;10.30;;;6.87;;
2474;SDS011;1248;48.694;10.160;2024-02-21T07:44:59;11.17;;;7.13;;
2474;SDS011;1248;48.694;10.160;2024-02-21T07:47:26;13.57;;;6.97;;
2474;SDS011;1248;48.694;10.160;2024-02-21T07:49:53;11.33;;;5.90;;
2474;SDS011;1248;48.694;10.160;2024-02-21T07:52:22;10.30;;;5.27;;
2474;SDS011;1248;48.694;10.160;2024-02-21T07:54:50;10.20;;;5.63;;
2474;SDS011;1248;48.694;10.160;2024-02-21T07:57:17;16.40;;;6.30;;
2474;SDS011;1248;48.694;10.160;2024-02-21T07:59:44;9.70;;;6.00;;
2474;SDS011;1248;48.694;10.160;2024-02-21T08:02:13;14.23;;;6.90;;
2474;SDS011;1248;48.694;10.160;2024-02-21T08:04:40;9.87;;;5.60;;
2474;SDS011;1248;48.694;10.160;2024-02-21T08:07:07;15.23;;;7.27;;
2474;SDS011;1248;48.694;10.160;2024-02-21T08:09:35;15.00;;;6.13;;
2474;SDS011;1248;48.694;10.160;2024-02-21T08:12:03;13.70;;;5.30;;
2474;SDS011;1248;48.694;10.160;2024-02-21T08:14:31;14.30;;;6.20;;
2474;SDS011;1248;48.694;10.160;2024-02-21T08:16:58;8.17;;;4.60;;
2474;SDS011;1248;48.694;10.160;2024-02-21T08:19:25;14.70;;;5.90;;
2474;SDS011;1248;48.694;10.160;2024-02-21T08:21:52;8.87;;;5.50;;
2474;SDS011;1248;48.694;10.160;2024-02-21T08:24:19;11.60;;;5.60;;
2474;SDS011;1248;48.694;10.160;2024-02-21T08:26:49;15.57;;;5.50;;
2474;SDS011;1248;48.694;10.160;2024-02-21T08:29:16;13.47;;;5.50;;
2474;SDS011;1248;48.694;10.160;2024-02-21T08:31:43;9.93;;;5.27;;
2474;SDS011;1248;48.694;10.160;2024-02-21T08:34:10;12.10;;;5.67;;
2474;SDS011;1248;48.694;10.160;2024-02-21T08:36:38;11.67;;;5.07;;
2474;SDS011;1248;48.694;10.160;2024-02-21T08:39:05;9.07;;;5.50;;
2474;SDS011;1248;48.694;10.160;2024-02-21T08:41:33;9.40;;;5.60;;
2474;SDS011;1248;48.694;10.160;2024-02-21T08:44:02;12.13;;;5.33;;
2474;SDS011;1248;48.694;10.160;2024-02-21T08:46:29;16.57;;;7.13;;
2474;SDS011;1248;48.694;10.160;2024-02-21T08:48:56;9.27;;;6.60;;
2474;SDS011;1248;48.694;10.160;2024-02-21T08:51:23;15.53;;;4.90;;
2474;SDS011;1248;48.694;10.160;2024-02-21T08:53:50;15.93;;;6.00;;
2474;SDS011;1248;48.694;10.160;2024-02-21T08:56:17;14.83;;;5.00;;
2474;SDS011;1248;48.694;10.160;2024-02-21T08:58:44;9.37;;;5.43;;
2474;SDS011;1248;48.694;10.160;2024-02-21T09:01:13;10.63;;;5.30;;
2474;SDS011;1248;48.694;10.160;2024-02-21T09:03:40;7.77;;;5.00;;
2474;SDS011;1248;48.694;10.160;2024-02-21T09:06:09;7.17;;;4.87;;
2474;SDS011;1248;48.694;10.160;2024-02-21T09:08:38;5.43;;;4.90;;
2474;SDS011;1248;48.694;10.160;2024-02-21T09:11:06;15.43;;;5.60;;
2474;SDS011;1248;48.694;10.160;2024-02-21T09:13:33;11.07;;;4.90;;
2474;SDS011;1248;48.694;10.160;2024-02-21T09:16:00;11.23;;;5.23;;
2474;SDS011;1248;48.694;10.160;2024-02-21T09:18:28;15.13;;;6.93;;
2474;SDS011;1248;48.694;10.160;2024-02-21T09:20:55;8.50;;;4.83;;
2474;SDS011;1248;48.694;10.160;2024-02-21T09:23:23;10.90;;;5.90;;
2474;SDS011;1248;48.694;10.160;2024-02-21T09:25:50;8.90;;;5.50;;
2474;SDS011;1248;48.694;10.160;2024-02-21T09:28:17;21.50;;;11.43;;
2474;SDS011;1248;48.694;10.160;2024-02-21T09:30:45;13.13;;;4.27;;
2474;SDS011;1248;48.694;10.160;2024-02-21T09:33:12;7.30;;;3.90;;
2474;SDS011;1248;48.694;10.160;2024-02-21T09:35:40;9.37;;;3.87;;
2474;SDS011;1248;48.694;10.160;2024-02-21T09:38:07;8.47;;;4.90;;
2474;SDS011;1248;48.694;10.160;2024-02-21T09:40:34;13.43;;;4.13;;
2474;SDS011;1248;48.694;10.160;2024-02-21T09:43:04;7.97;;;4.43;;
2474;SDS011;1248;48.694;10.160;2024-02-21T09:45:33;5.23;;;3.37;;
2474;SDS011;1248;48.694;10.160;2024-02-21T09:48:11;7.97;;;4.10;;
2474;SDS011;1248;48.694;10.160;2024-02-21T09:50:47;8.13;;;3.77;;
2474;SDS011;1248;48.694;10.160;2024-02-21T09:53:15;4.87;;;2.80;;
2474;SDS011;1248;48.694;10.160;2024-02-21T09:55:43;10.33;;;3.63;;
2474;SDS011;1248;48.694;10.160;2024-02-21T09:58:10;9.93;;;2.93;;
2474;SDS011;1248;48.694;10.160;2024-02-21T10:00:38;6.03;;;2.93;;
2474;SDS011;1248;48.694;10.160;2024-02-21T10:03:05;11.10;;;3.10;;
2474;SDS011;1248;48.694;10.160;2024-02-21T10:05:35;6.97;;;3.20;;
2474;SDS011;1248;48.694;10.160;2024-02-21T10:08:04;5.33;;;3.10;;
2474;SDS011;1248;48.694;10.160;2024-02-21T10:10:40;6.37;;;3.20;;
2474;SDS011;1248;48.694;10.160;2024-02-21T10:13:07;6.00;;;2.90;;
2474;SDS011;1248;48.694;10.160;2024-02-21T10:15:34;5.50;;;2.67;;
2474;SDS011;1248;48.694;10.160;2024-02-21T10:18:01;6.73;;;2.77;;
2474;SDS011;1248;48.694;10.160;2024-02-21T10:20:29;9.17;;;3.00;;
2474;SDS011;1248;48.694;10.160;2024-02-21T10:23:03;7.40;;;3.40;;
2474;SDS011;1248;48.694;10.160;2024-02-21T10:25:33;10.80;;;2.63;;
2474;SDS011;1248;48.694;10.160;2024-02-21T10:28:01;7.40;;;3.10;;
2474;SDS011;1248;48.694;10.160;2024-02-21T10:30:29;8.33;;;3.37;;
2474;SDS011;1248;48.694;10.160;2024-02-21T10:32:56;5.70;;;3.40;;
2474;SDS011;1248;48.694;10.160;2024-02-21T10:35:27;5.13;;;2.50;;
2474;SDS011;1248;48.694;10.160;2024-02-21T10:37:57;13.13;;;2.73;;
2474;SDS011;1248;48.694;10.160;2024-02-21T10:40:27;3.97;;;3.00;;
2474;SDS011;1248;48.694;10.160;2024-02-21T10:42:56;10.57;;;3.47;;
2474;SDS011;1248;48.694;10.160;2024-02-21T10:45:28;3.30;;;2.33;;
2474;SDS011;1248;48.694;10.160;2024-02-21T10:48:00;5.97;;;3.23;;
2474;SDS011;1248;48.694;10.160;2024-02-21T10:50:29;6.90;;;3.40;;
2474;SDS011;1248;48.694;10.160;2024-02-21T10:53:01;6.47;;;3.70;;
2474;SDS011;1248;48.694;10.160;2024-02-21T10:55:33;8.23;;;3.43;;
2474;SDS011;1248;48.694;10.160;2024-02-21T10:58:05;9.80;;;3.33;;
2474;SDS011;1248;48.694;10.160;2024-02-21T11:00:32;7.50;;;2.73;;
2474;SDS011;1248;48.694;10.160;2024-02-21T11:03:00;8.77;;;2.87;;
2474;SDS011;1248;48.694;10.160;2024-02-21T11:05:27;9.93;;;3.20;;
2474;SDS011;1248;48.694;10.160;2024-02-21T11:07:54;6.50;;;3.20;;
2474;SDS011;1248;48.694;10.160;2024-02-21T11:10:22;7.93;;;3.20;;
2474;SDS011;1248;48.694;10.160;2024-02-21T11:12:53;6.93;;;3.30;;
2474;SDS011;1248;48.694;10.160;2024-02-21T11:15:24;8.67;;;4.67;;
2474;SDS011;1248;48.694;10.160;2024-02-21T11:17:55;6.67;;;3.20;;
2474;SDS011;1248;48.694;10.160;2024-02-21T11:20:31;4.13;;;2.73;;
2474;SDS011;1248;48.694;10.160;2024-02-21T11:22:59;9.93;;;3.20;;
2474;SDS011;1248;48.694;10.160;2024-02-21T11:25:27;3.50;;;2.60;;
2474;SDS011;1248;48.694;10.160;2024-02-21T11:28:01;6.83;;;2.83;;
2474;SDS011;1248;48.694;10.160;2024-02-21T11:30:29;5.53;;;3.97;;
2474;SDS011;1248;48.694;10.160;2024-02-21T11:33:00;9.33;;;3.43;;
2474;SDS011;1248;48.694;10.160;2024-02-21T11:35:30;12.87;;;3.70;;
2474;SDS011;1248;48.694;10.160;2024-02-21T11:38:07;4.37;;;3.20;;
2474;SDS011;1248;48.694;10.160;2024-02-21T11:40:34;5.70;;;3.80;;
2474;SDS011;1248;48.694;10.160;2024-02-21T11:43:03;8.93;;;4.50;;
2474;SDS011;1248;48.694;10.160;2024-02-21T11:45:30;9.57;;;4.03;;
2474;SDS011;1248;48.694;10.160;2024-02-21T11:47:58;6.80;;;4.37;;
2474;SDS011;1248;48.694;10.160;2024-02-21T11:50:29;10.23;;;3.67;;
2474;SDS011;1248;48.694;10.160;2024-02-21T11:52:57;12.90;;;4.07;;
2474;SDS011;1248;48.694;10.160;2024-02-21T11:55:24;4.50;;;3.10;;
2474;SDS011;1248;48.694;10.160;2024-02-21T11:57:51;8.17;;;3.93;;
2474;SDS011;1248;48.694;10.160;2024-02-21T12:00:20;9.73;;;3.43;;
2474;SDS011;1248;48.694;10.160;2024-02-21T12:02:47;6.80;;;3.60;;
2474;SDS011;1248;48.694;10.160;2024-02-21T12:05:15;8.57;;;3.03;;
2474;SDS011;1248;48.694;10.160;2024-02-21T12:07:42;5.80;;;3.10;;
2474;SDS011;1248;48.694;10.160;2024-02-21T12:10:10;6.07;;;3.03;;
2474;SDS011;1248;48.694;10.160;2024-02-21T12:12:38;6.93;;;3.00;;
2474;SDS011;1248;48.694;10.160;2024-02-21T12:15:05;5.60;;;2.57;;
2474;SDS011;1248;48.694;10.160;2024-02-21T12:17:35;4.30;;;2.70;;
2474;SDS011;1248;48.694;10.160;2024-02-21T12:20:02;8.57;;;2.60;;
2474;SDS011;1248;48.694;10.160;2024-02-21T12:22:35;4.70;;;2.50;;
2474;SDS011;1248;48.694;10.160;2024-02-21T12:25:03;10.10;;;2.50;;
2474;SDS011;1248;48.694;10.160;2024-02-21T12:27:33;5.77;;;2.30;;
2474;SDS011;1248;48.694;10.160;2024-02-21T12:30:00;9.70;;;2.30;;
2474;SDS011;1248;48.694;10.160;2024-02-21T12:32:31;7.43;;;3.60;;
2474;SDS011;1248;48.694;10.160;2024-02-21T12:35:01;4.87;;;2.70;;
2474;SDS011;1248;48.694;10.160;2024-02-21T12:37:41;5.33;;;2.17;;
2474;SDS011;1248;48.694;10.160;2024-02-21T12:40:09;5.80;;;2.77;;
2474;SDS011;1248;48.694;10.160;2024-02-21T12:42:39;3.30;;;2.40;;
2474;SDS011;1248;48.694;10.160;2024-02-21T12:45:09;7.60;;;2.60;;
2474;SDS011;1248;48.694;10.160;2024-02-21T12:47:38;4.60;;;2.17;;
2474;SDS011;1248;48.694;10.160;2024-02-21T12:50:07;5.57;;;2.47;;
2474;SDS011;1248;48.694;10.160;2024-02-21T12:52:34;5.40;;;2.33;;
2474;SDS011;1248;48.694;10.160;2024-02-21T12:55:02;2.50;;;2.30;;
2474;SDS011;1248;48.694;10.160;2024-02-21T12:57:29;7.20;;;2.60;;
2474;SDS011;1248;48.694;10.160;2024-02-21T12:59:56;7.93;;;3.20;;
2474;SDS011;1248;48.694;10.160;2024-02-21T13:02:23;12.70;;;2.70;;
2474;SDS011;1248;48.694;10.160;2024-02-21T13:04:50;12.90;;;2.73;;
2474;SDS011;1248;48.694;10.160;2024-02-21T13:07:18;5.43;;;3.50;;
2474;SDS011;1248;48.694;10.160;2024-02-21T13:09:45;5.67;;;2.63;;
2474;SDS011;1248;48.694;10.160;2024-02-21T13:12:12;4.53;;;2.37;;
2474;SDS011;1248;48.694;10.160;2024-02-21T13:14:39;3.70;;;2.40;;
2474;SDS011;1248;48.694;10.160;2024-02-21T13:17:09;3.73;;;2.00;;
2474;SDS011;1248;48.694;10.160;2024-02-21T13:19:36;5.73;;;2.30;;
2474;SDS011;1248;48.694;10.160;2024-02-21T13:22:03;4.27;;;2.17;;
2474;SDS011;1248;48.694;10.160;2024-02-21T13:24:31;5.80;;;2.03;;
2474;SDS011;1248;48.694;10.160;2024-02-21T13:26:58;6.70;;;1.70;;
2474;SDS011;1248;48.694;10.160;2024-02-21T13:29:25;7.57;;;2.40;;
2474;SDS011;1248;48.694;10.160;2024-02-21T13:31:52;4.77;;;2.77;;
2474;SDS011;1248;48.694;10.160;2024-02-21T13:34:19;4.30;;;2.17;;
2474;SDS011;1248;48.694;10.160;2024-02-21T13:36:46;3.40;;;1.80;;
2474;SDS011;1248;48.694;10.160;2024-02-21T13:39:13;3.57;;;1.83;;
2474;SDS011;1248;48.694;10.160;2024-02-21T13:41:43;4.40;;;2.63;;
2474;SDS011;1248;48.694;10.160;2024-02-21T13:44:10;4.30;;;2.50;;
2474;SDS011;1248;48.694;10.160;2024-02-21T13:46:38;2.70;;;2.10;;
2474;SDS011;1248;48.694;10.160;2024-02-21T13:49:05;2.80;;;2.07;;
2474;SDS011;1248;48.694;10.160;2024-02-21T13:51:33;2.50;;;1.90;;
2474;SDS011;1248;48.694;10.160;2024-02-21T13:54:01;3.90;;;2.10;;
2474;SDS011;1248;48.694;10.160;2024-02-21T13:56:29;4.13;;;2.60;;
2474;SDS011;1248;48.694;10.160;2024-02-21T13:58:59;5.00;;;2.07;;
2474;SDS011;1248;48.694;10.160;2024-02-21T14:01:26;5.77;;;2.47;;
2474;SDS011;1248;48.694;10.160;2024-02-21T14:03:54;5.00;;;2.30;;
2474;SDS011;1248;48.694;10.160;2024-02-21T14:06:21;3.27;;;2.23;;
2474;SDS011;1248;48.694;10.160;2024-02-21T14:08:48;3.97;;;2.40;;
2474;SDS011;1248;48.694;10.160;2024-02-21T14:11:15;5.30;;;2.40;;
2474;SDS011;1248;48.694;10.160;2024-02-21T14:13:42;6.40;;;2.00;;
2474;SDS011;1248;48.694;10.160;2024-02-21T14:16:11;4.40;;;2.63;;
2474;SDS011;1248;48.694;10.160;2024-02-21T14:18:39;2.70;;;1.83;;
2474;SDS011;1248;48.694;10.160;2024-02-21T14:21:07;2.80;;;2.03;;
2474;SDS011;1248;48.694;10.160;2024-02-21T14:23:36;5.33;;;2.30;;
2474;SDS011;1248;48.694;10.160;2024-02-21T14:26:03;3.17;;;2.10;;
2474;SDS011;1248;48.694;10.160;2024-02-21T14:28:30;2.00;;;1.80;;
2474;SDS011;1248;48.694;10.160;2024-02-21T14:30:59;3.23;;;2.27;;
2474;SDS011;1248;48.694;10.160;2024-02-21T14:33:27;1.97;;;1.70;;
2474;SDS011;1248;48.694;10.160;2024-02-21T14:35:54;4.53;;;2.23;;
2474;SDS011;1248;48.694;10.160;2024-02-21T14:38:21;3.77;;;2.33;;
2474;SDS011;1248;48.694;10.160;2024-02-21T14:40:48;5.70;;;2.40;;
2474;SDS011;1248;48.694;10.160;2024-02-21T14:43:15;2.77;;;2.47;;
2474;SDS011;1248;48.694;10.160;2024-02-21T14:45:43;5.50;;;2.50;;
2474;SDS011;1248;48.694;10.160;2024-02-21T14:48:13;3.57;;;2.30;;
2474;SDS011;1248;48.694;10.160;2024-02-21T14:50:41;3.50;;;1.87;;
2474;SDS011;1248;48.694;10.160;2024-02-21T14:53:08;3.10;;;1.93;;
2474;SDS011;1248;48.694;10.160;2024-02-21T14:55:36;3.13;;;1.93;;
2474;SDS011;1248;48.694;10.160;2024-02-21T14:58:05;4.20;;;2.33;;